Terminal Aerodrome Forecast
Issued by NWS

Current Version | Previous Version | Graphics & Text | Print | Product List | Glossary On
Versions: 1 2 3 4 5 6 7 8 9 10 11 12
000
FTUS41 KILN 221732
TAFLCK
TAF
KLCK 221732Z 2218/2318 03012G18KT P6SM SCT025 BKN100
     FM230100 03012KT P6SM BKN100
     FM230800 03010KT P6SM BKN250=

USA.gov is the U.S. government's official web portal to all federal, state and local government web resources and services.